Terminal Aerodrome Forecast
Issued by NWS Blacksburg, VA

Home | Current Version | Previous Version | Text Only | Print | Product List | Glossary On
Versions: 1 2 3 4 5 6 7 8 9 10 11 12 13 14 15 16 17 18 19 20 21 22 23 24 25 26 27 28 29 30
000
FTUS41 KRNK 280217 AAA
TAFBLF
TAF AMD
KBLF 280217Z 2802/2824 22006KT P6SM OVC080
      TEMPO 2804/2806 4SM -SHRA OVC040
     FM280600 22005KT P6SM VCSH OVC080
     FM281200 23006KT 6SM -SHRA OVC040
     FM281700 27008KT 6SM -SHRA OVC035=

USA.gov is the U.S. government's official web portal to all federal, state and local government web resources and services.